sensor_id;sensor_type;location;lat;lon;timestamp;pressure;altitude;pressure_sealevel;temperature;humidity
68197;BME280;55019;49.382;11.358;2024-03-02T00:00:19;95561.19;;;5.47;100.00
68197;BME280;55019;49.382;11.358;2024-03-02T00:02:47;95570.34;;;5.65;100.00
68197;BME280;55019;49.382;11.358;2024-03-02T00:05:15;95558.50;;;5.64;100.00
68197;BME280;55019;49.382;11.358;2024-03-02T00:07:42;95559.13;;;5.59;100.00
68197;BME280;55019;49.382;11.358;2024-03-02T00:10:09;95557.06;;;5.70;100.00
68197;BME280;55019;49.382;11.358;2024-03-02T00:12:39;95559.16;;;5.74;100.00
68197;BME280;55019;49.382;11.358;2024-03-02T00:17:52;95550.47;;;5.60;100.00
68197;BME280;55019;49.382;11.358;2024-03-02T00:20:21;95552.09;;;5.61;100.00
68197;BME280;55019;49.382;11.358;2024-03-02T00:22:47;95564.44;;;5.65;100.00
68197;BME280;55019;49.382;11.358;2024-03-02T00:25:13;95552.75;;;5.70;100.00
68197;BME280;55019;49.382;11.358;2024-03-02T00:27:39;95556.25;;;5.62;100.00
68197;BME280;55019;49.382;11.358;2024-03-02T00:30:37;95555.63;;;5.75;100.00
68197;BME280;55019;49.382;11.358;2024-03-02T00:33:08;95550.50;;;5.75;100.00
68197;BME280;55019;49.382;11.358;2024-03-02T00:35:34;95550.50;;;5.75;100.00
68197;BME280;55019;49.382;11.358;2024-03-02T00:38:09;95535.66;;;5.79;100.00
68197;BME280;55019;49.382;11.358;2024-03-02T00:40:34;95554.09;;;5.98;100.00
68197;BME280;55019;49.382;11.358;2024-03-02T00:43:01;95554.09;;;5.90;100.00
68197;BME280;55019;49.382;11.358;2024-03-02T00:45:28;95551.50;;;5.82;100.00
68197;BME280;55019;49.382;11.358;2024-03-02T00:47:55;95553.56;;;5.71;100.00
68197;BME280;55019;49.382;11.358;2024-03-02T00:50:21;95554.56;;;5.78;100.00
68197;BME280;55019;49.382;11.358;2024-03-02T00:52:47;95546.88;;;5.86;100.00
68197;BME280;55019;49.382;11.358;2024-03-02T00:55:14;95552.63;;;5.96;100.00
68197;BME280;55019;49.382;11.358;2024-03-02T00:57:40;95540.78;;;5.95;100.00
68197;BME280;55019;49.382;11.358;2024-03-02T01:00:06;95542.38;;;5.96;100.00
68197;BME280;55019;49.382;11.358;2024-03-02T01:02:36;95545.59;;;5.98;100.00
68197;BME280;55019;49.382;11.358;2024-03-02T01:05:02;95535.19;;;5.91;100.00
68197;BME280;55019;49.382;11.358;2024-03-02T01:07:27;95537.56;;;5.85;100.00
68197;BME280;55019;49.382;11.358;2024-03-02T01:09:53;95550.56;;;5.91;100.00
68197;BME280;55019;49.382;11.358;2024-03-02T01:12:19;95554.25;;;5.97;100.00
68197;BME280;55019;49.382;11.358;2024-03-02T01:14:45;95555.69;;;5.91;100.00
68197;BME280;55019;49.382;11.358;2024-03-02T01:17:10;95544.44;;;5.84;100.00
68197;BME280;55019;49.382;11.358;2024-03-02T01:19:36;95551.84;;;5.95;100.00
68197;BME280;55019;49.382;11.358;2024-03-02T01:22:03;95556.97;;;5.95;100.00
68197;BME280;55019;49.382;11.358;2024-03-02T01:24:29;95549.44;;;5.94;100.00
68197;BME280;55019;49.382;11.358;2024-03-02T01:26:54;95553.47;;;5.96;100.00
68197;BME280;55019;49.382;11.358;2024-03-02T01:29:20;95552.97;;;5.93;100.00
68197;BME280;55019;49.382;11.358;2024-03-02T01:31:46;95559.22;;;5.98;100.00
68197;BME280;55019;49.382;11.358;2024-03-02T01:34:12;95549.13;;;5.97;100.00
68197;BME280;55019;49.382;11.358;2024-03-02T01:36:38;95544.81;;;5.97;100.00
68197;BME280;55019;49.382;11.358;2024-03-02T01:39:03;95549.13;;;5.97;100.00
68197;BME280;55019;49.382;11.358;2024-03-02T01:41:34;95545.91;;;5.87;100.00
68197;BME280;55019;49.382;11.358;2024-03-02T01:44:00;95553.13;;;5.91;100.00
68197;BME280;55019;49.382;11.358;2024-03-02T01:46:25;95553.28;;;5.98;100.00
68197;BME280;55019;49.382;11.358;2024-03-02T01:48:51;95553.44;;;5.88;100.00
68197;BME280;55019;49.382;11.358;2024-03-02T01:51:17;95553.91;;;5.84;100.00
68197;BME280;55019;49.382;11.358;2024-03-02T01:53:43;95549.28;;;5.95;100.00
68197;BME280;55019;49.382;11.358;2024-03-02T01:56:08;95556.03;;;5.96;100.00
68197;BME280;55019;49.382;11.358;2024-03-02T01:58:34;95548.31;;;5.96;100.00
68197;BME280;55019;49.382;11.358;2024-03-02T02:01:00;95548.56;;;5.69;100.00
68197;BME280;55019;49.382;11.358;2024-03-02T02:03:25;95547.28;;;5.73;100.00
68197;BME280;55019;49.382;11.358;2024-03-02T02:05:51;95548.63;;;5.85;100.00
68197;BME280;55019;49.382;11.358;2024-03-02T02:08:17;95546.88;;;5.86;100.00
68197;BME280;55019;49.382;11.358;2024-03-02T02:10:43;95549.28;;;5.87;100.00
68197;BME280;55019;49.382;11.358;2024-03-02T02:13:08;95535.94;;;5.76;100.00
68197;BME280;55019;49.382;11.358;2024-03-02T02:15:34;95547.59;;;5.55;100.00
68197;BME280;55019;49.382;11.358;2024-03-02T02:18:02;95540.22;;;5.60;100.00
68197;BME280;55019;49.382;11.358;2024-03-02T02:20:29;95547.94;;;5.67;100.00
68197;BME280;55019;49.382;11.358;2024-03-02T02:25:24;95557.72;;;5.72;100.00
68197;BME280;55019;49.382;11.358;2024-03-02T02:27:50;95550.84;;;5.80;100.00
68197;BME280;55019;49.382;11.358;2024-03-02T02:30:19;95553.72;;;5.77;100.00
68197;BME280;55019;49.382;11.358;2024-03-02T02:32:46;95561.75;;;5.82;100.00
68197;BME280;55019;49.382;11.358;2024-03-02T02:35:12;95549.09;;;5.81;100.00
68197;BME280;55019;49.382;11.358;2024-03-02T02:37:38;95554.84;;;5.67;100.00
68197;BME280;55019;49.382;11.358;2024-03-02T02:40:04;95553.69;;;5.54;100.00
68197;BME280;55019;49.382;11.358;2024-03-02T02:42:30;95549.84;;;5.58;100.00
68197;BME280;55019;49.382;11.358;2024-03-02T02:44:56;95562.63;;;5.42;100.00
68197;BME280;55019;49.382;11.358;2024-03-02T02:47:21;95557.34;;;5.59;100.00
68197;BME280;55019;49.382;11.358;2024-03-02T02:49:47;95547.59;;;5.63;100.00
68197;BME280;55019;49.382;11.358;2024-03-02T02:52:13;95549.44;;;5.78;100.00
68197;BME280;55019;49.382;11.358;2024-03-02T02:54:39;95551.19;;;5.85;100.00
68197;BME280;55019;49.382;11.358;2024-03-02T02:57:04;95554.03;;;5.74;100.00
68197;BME280;55019;49.382;11.358;2024-03-02T02:59:30;95551.69;;;5.89;100.00
68197;BME280;55019;49.382;11.358;2024-03-02T03:01:55;95543.34;;;5.87;100.00
68197;BME280;55019;49.382;11.358;2024-03-02T03:04:21;95545.44;;;5.91;100.00
68197;BME280;55019;49.382;11.358;2024-03-02T03:06:47;95551.53;;;5.90;100.00
68197;BME280;55019;49.382;11.358;2024-03-02T03:09:12;95546.72;;;5.95;100.00
68197;BME280;55019;49.382;11.358;2024-03-02T03:11:38;95559.53;;;5.87;100.00
68197;BME280;55019;49.382;11.358;2024-03-02T03:14:04;95560.16;;;5.81;100.00
68197;BME280;55019;49.382;11.358;2024-03-02T03:16:30;95548.47;;;5.87;100.00
68197;BME280;55019;49.382;11.358;2024-03-02T03:18:56;95546.38;;;5.82;100.00
68197;BME280;55019;49.382;11.358;2024-03-02T03:21:25;95549.94;;;5.89;100.00
68197;BME280;55019;49.382;11.358;2024-03-02T03:23:50;95561.28;;;6.03;100.00
68197;BME280;55019;49.382;11.358;2024-03-02T03:26:16;95555.38;;;5.94;100.00
68197;BME280;55019;49.382;11.358;2024-03-02T03:28:42;95551.53;;;5.98;100.00
68197;BME280;55019;49.382;11.358;2024-03-02T03:31:07;95553.59;;;6.03;100.00
68197;BME280;55019;49.382;11.358;2024-03-02T03:33:33;95551.22;;;6.01;100.00
68197;BME280;55019;49.382;11.358;2024-03-02T03:36:00;95543.53;;;6.01;100.00
68197;BME280;55019;49.382;11.358;2024-03-02T03:38:26;95544.94;;;6.04;100.00
68197;BME280;55019;49.382;11.358;2024-03-02T03:40:51;95551.50;;;5.82;100.00
68197;BME280;55019;49.382;11.358;2024-03-02T03:43:17;95558.25;;;5.91;100.00
68197;BME280;55019;49.382;11.358;2024-03-02T03:45:43;95548.31;;;5.88;100.00
68197;BME280;55019;49.382;11.358;2024-03-02T03:48:09;95555.84;;;5.90;100.00
68197;BME280;55019;49.382;11.358;2024-03-02T03:50:34;95554.72;;;5.92;100.00
68197;BME280;55019;49.382;11.358;2024-03-02T03:53:00;95555.19;;;6.04;100.00
68197;BME280;55019;49.382;11.358;2024-03-02T03:55:26;95568.97;;;5.87;100.00
68197;BME280;55019;49.382;11.358;2024-03-02T03:57:51;95564.66;;;5.95;100.00
68197;BME280;55019;49.382;11.358;2024-03-02T04:00:17;95564.34;;;6.06;100.00
68197;BME280;55019;49.382;11.358;2024-03-02T04:02:43;95573.28;;;5.86;100.00
68197;BME280;55019;49.382;11.358;2024-03-02T04:05:09;95567.47;;;5.76;100.00
68197;BME280;55019;49.382;11.358;2024-03-02T04:07:37;95573.47;;;5.93;100.00
68197;BME280;55019;49.382;11.358;2024-03-02T04:10:07;95566.59;;;6.01;100.00
68197;BME280;55019;49.382;11.358;2024-03-02T04:12:34;95570.13;;;6.00;100.00
68197;BME280;55019;49.382;11.358;2024-03-02T04:15:02;95569.16;;;6.09;100.00
68197;BME280;55019;49.382;11.358;2024-03-02T04:17:27;95568.53;;;6.07;100.00
68197;BME280;55019;49.382;11.358;2024-03-02T04:19:53;95575.38;;;5.83;100.00
68197;BME280;55019;49.382;11.358;2024-03-02T04:22:19;95574.91;;;5.87;100.00
68197;BME280;55019;49.382;11.358;2024-03-02T04:24:45;95564.50;;;5.97;100.00
68197;BME280;55019;49.382;11.358;2024-03-02T04:27:10;95570.44;;;5.89;100.00
68197;BME280;55019;49.382;11.358;2024-03-02T04:29:36;95570.91;;;5.85;100.00
68197;BME280;55019;49.382;11.358;2024-03-02T04:32:02;95575.97;;;5.69;100.00
68197;BME280;55019;49.382;11.358;2024-03-02T04:34:27;95574.84;;;5.71;100.00
68197;BME280;55019;49.382;11.358;2024-03-02T04:36:53;95567.66;;;5.67;100.00
68197;BME280;55019;49.382;11.358;2024-03-02T04:39:19;95578.34;;;5.63;100.00
68197;BME280;55019;49.382;11.358;2024-03-02T04:41:44;95570.03;;;5.61;100.00
68197;BME280;55019;49.382;11.358;2024-03-02T04:44:10;95577.19;;;5.49;100.00
68197;BME280;55019;49.382;11.358;2024-03-02T04:46:36;95575.09;;;5.37;100.00
68197;BME280;55019;49.382;11.358;2024-03-02T04:49:01;95581.34;;;5.50;100.00
68197;BME280;55019;49.382;11.358;2024-03-02T04:51:27;95582.50;;;5.48;100.00
68197;BME280;55019;49.382;11.358;2024-03-02T04:53:53;95595.94;;;5.50;100.00
68197;BME280;55019;49.382;11.358;2024-03-02T04:56:19;95590.19;;;5.56;100.00
68197;BME280;55019;49.382;11.358;2024-03-02T04:59:10;95593.22;;;5.51;100.00
68197;BME280;55019;49.382;11.358;2024-03-02T05:01:36;95590.00;;;5.49;100.00
68197;BME280;55019;49.382;11.358;2024-03-02T05:04:02;95584.72;;;5.43;100.00
68197;BME280;55019;49.382;11.358;2024-03-02T05:06:28;95590.75;;;5.34;100.00
68197;BME280;55019;49.382;11.358;2024-03-02T05:08:53;95585.63;;;5.34;100.00
68197;BME280;55019;49.382;11.358;2024-03-02T05:11:19;95585.56;;;5.18;100.00
68197;BME280;55019;49.382;11.358;2024-03-02T05:14:06;95589.63;;;5.28;100.00
68197;BME280;55019;49.382;11.358;2024-03-02T05:16:35;95584.84;;;5.33;100.00
68197;BME280;55019;49.382;11.358;2024-03-02T05:19:03;95588.34;;;5.32;100.00
68197;BME280;55019;49.382;11.358;2024-03-02T05:21:32;95587.91;;;5.45;100.00
68197;BME280;55019;49.382;11.358;2024-03-02T05:23:58;95584.84;;;5.41;100.00
68197;BME280;55019;49.382;11.358;2024-03-02T05:26:23;95590.16;;;5.40;100.00
68197;BME280;55019;49.382;11.358;2024-03-02T05:28:49;95589.13;;;5.25;100.00
68197;BME280;55019;49.382;11.358;2024-03-02T05:31:15;95597.28;;;5.20;100.00
68197;BME280;55019;49.382;11.358;2024-03-02T05:33:41;95598.72;;;5.23;100.00
68197;BME280;55019;49.382;11.358;2024-03-02T05:36:06;95596.19;;;5.31;100.00
68197;BME280;55019;49.382;11.358;2024-03-02T05:38:34;95588.31;;;5.24;100.00
68197;BME280;55019;49.382;11.358;2024-03-02T05:41:00;95606.09;;;5.34;100.00
68197;BME280;55019;49.382;11.358;2024-03-02T05:43:26;95602.66;;;5.43;100.00
68197;BME280;55019;49.382;11.358;2024-03-02T05:45:51;95605.22;;;5.43;100.00
68197;BME280;55019;49.382;11.358;2024-03-02T05:48:17;95600.25;;;5.49;100.00
68197;BME280;55019;49.382;11.358;2024-03-02T05:50:43;95602.97;;;5.48;100.00
68197;BME280;55019;49.382;11.358;2024-03-02T05:53:08;95601.00;;;5.34;100.00
68197;BME280;55019;49.382;11.358;2024-03-02T05:55:34;95617.16;;;5.34;100.00
68197;BME280;55019;49.382;11.358;2024-03-02T05:58:00;95608.66;;;5.26;100.00
68197;BME280;55019;49.382;11.358;2024-03-02T06:00:32;95611.63;;;5.47;100.00
68197;BME280;55019;49.382;11.358;2024-03-02T06:02:58;95610.81;;;5.46;100.00
68197;BME280;55019;49.382;11.358;2024-03-02T06:05:24;95603.94;;;5.47;100.00
68197;BME280;55019;49.382;11.358;2024-03-02T06:07:50;95602.00;;;5.41;100.00
68197;BME280;55019;49.382;11.358;2024-03-02T06:10:16;95611.34;;;5.58;100.00
68197;BME280;55019;49.382;11.358;2024-03-02T06:12:43;95607.47;;;5.54;100.00
68197;BME280;55019;49.382;11.358;2024-03-02T06:15:09;95614.69;;;5.58;100.00
68197;BME280;55019;49.382;11.358;2024-03-02T06:17:35;95608.47;;;5.68;100.00
68197;BME280;55019;49.382;11.358;2024-03-02T06:20:01;95606.84;;;5.60;100.00
68197;BME280;55019;49.382;11.358;2024-03-02T06:22:27;95599.94;;;5.52;100.00
68197;BME280;55019;49.382;11.358;2024-03-02T06:24:53;95608.44;;;5.53;100.00
68197;BME280;55019;49.382;11.358;2024-03-02T06:27:19;95603.34;;;5.61;100.00
68197;BME280;55019;49.382;11.358;2024-03-02T06:29:45;95612.97;;;5.66;100.00
68197;BME280;55019;49.382;11.358;2024-03-02T06:32:11;95609.81;;;5.80;100.00
68197;BME280;55019;49.382;11.358;2024-03-02T06:34:36;95610.81;;;5.87;100.00
68197;BME280;55019;49.382;11.358;2024-03-02T06:37:02;95600.56;;;5.87;100.00
68197;BME280;55019;49.382;11.358;2024-03-02T06:39:28;95609.19;;;5.86;100.00
68197;BME280;55019;49.382;11.358;2024-03-02T06:41:54;95597.94;;;5.79;100.00
68197;BME280;55019;49.382;11.358;2024-03-02T06:44:20;95604.72;;;5.96;100.00
68197;BME280;55019;49.382;11.358;2024-03-02T06:46:46;95611.78;;;5.94;100.00
68197;BME280;55019;49.382;11.358;2024-03-02T06:49:12;95605.69;;;5.95;100.00
68197;BME280;55019;49.382;11.358;2024-03-02T06:51:38;95596.22;;;5.88;100.00
68197;BME280;55019;49.382;11.358;2024-03-02T06:54:04;95601.53;;;5.94;100.00
68197;BME280;55019;49.382;11.358;2024-03-02T06:56:29;95600.06;;;5.84;100.00
68197;BME280;55019;49.382;11.358;2024-03-02T06:58:56;95601.00;;;5.83;100.00
68197;BME280;55019;49.382;11.358;2024-03-02T07:01:22;95607.63;;;6.09;100.00
68197;BME280;55019;49.382;11.358;2024-03-02T07:03:47;95612.75;;;6.09;100.00
68197;BME280;55019;49.382;11.358;2024-03-02T07:06:13;95609.22;;;6.02;100.00
68197;BME280;55019;49.382;11.358;2024-03-02T07:08:39;95607.31;;;6.20;100.00
68197;BME280;55019;49.382;11.358;2024-03-02T07:11:05;95609.22;;;6.34;100.00
68197;BME280;55019;49.382;11.358;2024-03-02T07:13:31;95612.13;;;6.23;100.00
68197;BME280;55019;49.382;11.358;2024-03-02T07:15:56;95612.13;;;6.39;100.00
68197;BME280;55019;49.382;11.358;2024-03-02T07:18:29;95609.06;;;6.60;100.00
68197;BME280;55019;49.382;11.358;2024-03-02T07:20:54;95603.16;;;6.51;100.00
68197;BME280;55019;49.382;11.358;2024-03-02T07:23:21;95601.53;;;6.50;100.00
68197;BME280;55019;49.382;11.358;2024-03-02T07:25:49;95618.53;;;6.59;100.00
68197;BME280;55019;49.382;11.358;2024-03-02T07:28:16;95609.06;;;6.68;100.00
68197;BME280;55019;49.382;11.358;2024-03-02T07:30:41;95605.69;;;6.67;100.00
68197;BME280;55019;49.382;11.358;2024-03-02T07:33:07;95613.38;;;6.67;100.00
68197;BME280;55019;49.382;11.358;2024-03-02T07:35:33;95611.59;;;6.84;100.00
68197;BME280;55019;49.382;11.358;2024-03-02T07:37:59;95611.91;;;6.89;100.00
68197;BME280;55019;49.382;11.358;2024-03-02T07:40:25;95623.47;;;6.85;100.00
68197;BME280;55019;49.382;11.358;2024-03-02T07:42:50;95617.53;;;6.84;100.00
68197;BME280;55019;49.382;11.358;2024-03-02T07:45:16;95620.09;;;7.00;100.00
68197;BME280;55019;49.382;11.358;2024-03-02T07:47:42;95617.78;;;7.13;100.00
68197;BME280;55019;49.382;11.358;2024-03-02T07:50:08;95616.16;;;7.20;100.00
68197;BME280;55019;49.382;11.358;2024-03-02T07:52:34;95628.50;;;7.32;100.00
68197;BME280;55019;49.382;11.358;2024-03-02T07:55:00;95618.53;;;7.68;100.00
68197;BME280;55019;49.382;11.358;2024-03-02T07:57:26;95615.41;;;8.11;100.00
68197;BME280;55019;49.382;11.358;2024-03-02T07:59:51;95622.28;;;8.41;100.00
68197;BME280;55019;49.382;11.358;2024-03-02T08:02:17;95620.22;;;8.58;100.00
68197;BME280;55019;49.382;11.358;2024-03-02T08:04:43;95616.31;;;9.14;100.00
68197;BME280;55019;49.382;11.358;2024-03-02T08:07:11;95620.78;;;9.84;100.00
68197;BME280;55019;49.382;11.358;2024-03-02T08:09:37;95621.66;;;9.91;100.00
68197;BME280;55019;49.382;11.358;2024-03-02T08:12:03;95622.78;;;10.59;100.00
68197;BME280;55019;49.382;11.358;2024-03-02T08:14:28;95631.59;;;11.20;100.00
68197;BME280;55019;49.382;11.358;2024-03-02T08:16:54;95632.34;;;11.81;100.00
68197;BME280;55019;49.382;11.358;2024-03-02T08:19:20;95632.16;;;11.15;100.00
68197;BME280;55019;49.382;11.358;2024-03-02T08:21:46;95637.53;;;11.47;100.00
68197;BME280;55019;49.382;11.358;2024-03-02T08:24:11;95637.91;;;12.38;100.00
68197;BME280;55019;49.382;11.358;2024-03-02T08:26:37;95628.22;;;12.66;100.00
68197;BME280;55019;49.382;11.358;2024-03-02T08:29:03;95625.69;;;12.06;100.00
68197;BME280;55019;49.382;11.358;2024-03-02T08:31:29;95625.38;;;11.75;100.00
68197;BME280;55019;49.382;11.358;2024-03-02T08:33:56;95631.31;;;11.69;100.00
68197;BME280;55019;49.382;11.358;2024-03-02T08:36:24;95630.28;;;12.11;100.00
68197;BME280;55019;49.382;11.358;2024-03-02T08:38:51;95626.50;;;12.13;100.00
68197;BME280;55019;49.382;11.358;2024-03-02T08:41:17;95620.03;;;12.56;100.00
68197;BME280;55019;49.382;11.358;2024-03-02T08:43:43;95618.38;;;14.03;100.00
68197;BME280;55019;49.382;11.358;2024-03-02T08:46:09;95618.16;;;14.54;100.00
68197;BME280;55019;49.382;11.358;2024-03-02T08:48:34;95625.59;;;14.44;100.00
68197;BME280;55019;49.382;11.358;2024-03-02T08:51:00;95621.34;;;14.56;97.71
68197;BME280;55019;49.382;11.358;2024-03-02T08:53:26;95622.03;;;15.19;95.47
68197;BME280;55019;49.382;11.358;2024-03-02T08:55:52;95633.13;;;15.93;89.39
68197;BME280;55019;49.382;11.358;2024-03-02T08:58:18;95613.50;;;15.36;91.86
68197;BME280;55019;49.382;11.358;2024-03-02T09:00:44;95622.47;;;15.94;81.83
68197;BME280;55019;49.382;11.358;2024-03-02T09:03:10;95621.09;;;15.13;86.46
68197;BME280;55019;49.382;11.358;2024-03-02T09:05:36;95625.41;;;14.46;99.71
68197;BME280;55019;49.382;11.358;2024-03-02T09:08:01;95635.34;;;14.18;100.00
68197;BME280;55019;49.382;11.358;2024-03-02T09:10:29;95635.31;;;13.68;100.00
68197;BME280;55019;49.382;11.358;2024-03-02T09:12:54;95635.88;;;14.33;100.00
68197;BME280;55019;49.382;11.358;2024-03-02T09:15:20;95647.50;;;14.24;100.00
68197;BME280;55019;49.382;11.358;2024-03-02T09:17:46;95643.00;;;12.98;100.00
68197;BME280;55019;49.382;11.358;2024-03-02T09:20:12;95640.56;;;12.90;100.00
68197;BME280;55019;49.382;11.358;2024-03-02T09:22:39;95650.94;;;12.77;100.00
68197;BME280;55019;49.382;11.358;2024-03-02T09:25:05;95654.16;;;13.18;100.00
68197;BME280;55019;49.382;11.358;2024-03-02T09:27:38;95646.97;;;12.88;100.00
68197;BME280;55019;49.382;11.358;2024-03-02T09:30:10;95648.16;;;12.85;100.00
68197;BME280;55019;49.382;11.358;2024-03-02T09:32:37;95648.59;;;13.21;100.00
68197;BME280;55019;49.382;11.358;2024-03-02T09:35:03;95658.81;;;13.86;100.00
68197;BME280;55019;49.382;11.358;2024-03-02T09:37:32;95659.72;;;12.76;100.00
68197;BME280;55019;49.382;11.358;2024-03-02T09:39:57;95647.97;;;12.93;100.00
68197;BME280;55019;49.382;11.358;2024-03-02T09:42:23;95653.47;;;12.32;100.00
68197;BME280;55019;49.382;11.358;2024-03-02T09:44:49;95647.09;;;12.47;100.00
68197;BME280;55019;49.382;11.358;2024-03-02T09:47:15;95654.50;;;12.50;100.00
68197;BME280;55019;49.382;11.358;2024-03-02T09:49:41;95640.72;;;13.60;100.00
68197;BME280;55019;49.382;11.358;2024-03-02T09:52:07;95642.22;;;13.87;100.00
68197;BME280;55019;49.382;11.358;2024-03-02T09:54:33;95638.59;;;13.37;100.00
68197;BME280;55019;49.382;11.358;2024-03-02T09:56:58;95659.16;;;13.13;100.00
68197;BME280;55019;49.382;11.358;2024-03-02T09:59:27;95648.91;;;14.27;100.00
68197;BME280;55019;49.382;11.358;2024-03-02T10:02:01;95643.25;;;14.67;94.67
68197;BME280;55019;49.382;11.358;2024-03-02T10:04:28;95640.22;;;15.25;90.17
68197;BME280;55019;49.382;11.358;2024-03-02T10:07:16;95638.63;;;15.67;79.20
68197;BME280;55019;49.382;11.358;2024-03-02T10:09:46;95636.31;;;15.77;79.09
68197;BME280;55019;49.382;11.358;2024-03-02T10:12:14;95641.03;;;14.70;88.70
68197;BME280;55019;49.382;11.358;2024-03-02T10:14:40;95637.19;;;12.70;100.00
68197;BME280;55019;49.382;11.358;2024-03-02T10:17:08;95640.56;;;12.51;100.00
68197;BME280;55019;49.382;11.358;2024-03-02T10:19:34;95641.75;;;12.81;100.00
68197;BME280;55019;49.382;11.358;2024-03-02T10:22:02;95630.63;;;13.13;100.00
68197;BME280;55019;49.382;11.358;2024-03-02T10:24:35;95628.88;;;13.83;100.00
68197;BME280;55019;49.382;11.358;2024-03-02T10:27:02;95624.00;;;14.00;99.11
68197;BME280;55019;49.382;11.358;2024-03-02T10:29:29;95625.72;;;15.11;91.20
68197;BME280;55019;49.382;11.358;2024-03-02T10:31:55;95620.56;;;16.37;81.15
68197;BME280;55019;49.382;11.358;2024-03-02T10:34:21;95623.06;;;17.48;67.91
68197;BME280;55019;49.382;11.358;2024-03-02T10:36:47;95621.75;;;16.93;62.40
68197;BME280;55019;49.382;11.358;2024-03-02T10:39:14;95625.66;;;17.14;62.23
68197;BME280;55019;49.382;11.358;2024-03-02T10:41:40;95622.28;;;16.84;62.64
68197;BME280;55019;49.382;11.358;2024-03-02T10:44:07;95629.53;;;16.41;70.51
68197;BME280;55019;49.382;11.358;2024-03-02T10:46:35;95634.78;;;16.05;67.78
68197;BME280;55019;49.382;11.358;2024-03-02T10:49:03;95628.16;;;14.82;85.60
68197;BME280;55019;49.382;11.358;2024-03-02T10:51:31;95625.97;;;15.70;83.59
68197;BME280;55019;49.382;11.358;2024-03-02T10:54:02;95621.69;;;17.68;60.29
68197;BME280;55019;49.382;11.358;2024-03-02T10:56:33;95612.78;;;16.48;70.37
68197;BME280;55019;49.382;11.358;2024-03-02T11:01:50;95612.97;;;16.65;67.46
68197;BME280;55019;49.382;11.358;2024-03-02T11:04:19;95617.97;;;16.19;67.22
68197;BME280;55019;49.382;11.358;2024-03-02T11:06:50;95610.84;;;17.08;69.25
68197;BME280;55019;49.382;11.358;2024-03-02T11:09:19;95618.38;;;17.16;62.66
68197;BME280;55019;49.382;11.358;2024-03-02T11:14:30;95623.81;;;14.01;96.12
68197;BME280;55019;49.382;11.358;2024-03-02T11:16:57;95618.25;;;12.76;100.00
68197;BME280;55019;49.382;11.358;2024-03-02T11:19:24;95616.63;;;13.20;100.00
68197;BME280;55019;49.382;11.358;2024-03-02T11:21:50;95621.38;;;13.43;97.12
68197;BME280;55019;49.382;11.358;2024-03-02T11:26:53;95611.13;;;15.35;74.90
68197;BME280;55019;49.382;11.358;2024-03-02T11:32:13;95611.22;;;15.64;71.98
68197;BME280;55019;49.382;11.358;2024-03-02T11:34:41;95599.97;;;15.82;77.98
68197;BME280;55019;49.382;11.358;2024-03-02T11:37:13;95604.97;;;14.49;86.24
68197;BME280;55019;49.382;11.358;2024-03-02T11:39:44;95610.22;;;14.06;99.46
68197;BME280;55019;49.382;11.358;2024-03-02T11:42:11;95605.72;;;13.75;99.40
68197;BME280;55019;49.382;11.358;2024-03-02T11:44:42;95594.91;;;13.85;94.32
68197;BME280;55019;49.382;11.358;2024-03-02T11:47:10;95598.97;;;14.55;96.31
68197;BME280;55019;49.382;11.358;2024-03-02T11:49:44;95582.69;;;15.87;72.68
68197;BME280;55019;49.382;11.358;2024-03-02T11:52:14;95590.25;;;15.77;71.45
68197;BME280;55019;49.382;11.358;2024-03-02T11:54:42;95578.13;;;16.30;72.11
68197;BME280;55019;49.382;11.358;2024-03-02T11:57:18;95576.47;;;18.07;65.41
68197;BME280;55019;49.382;11.358;2024-03-02T11:59:45;95568.59;;;18.30;53.47
68197;BME280;55019;49.382;11.358;2024-03-02T12:02:16;95569.06;;;17.76;55.99
68197;BME280;55019;49.382;11.358;2024-03-02T12:04:43;95566.78;;;17.80;52.05
68197;BME280;55019;49.382;11.358;2024-03-02T12:07:10;95559.56;;;17.59;53.55
68197;BME280;55019;49.382;11.358;2024-03-02T12:09:36;95548.50;;;18.80;54.53
68197;BME280;55019;49.382;11.358;2024-03-02T12:14:33;95562.47;;;17.85;53.02
68197;BME280;55019;49.382;11.358;2024-03-02T12:17:00;95550.69;;;18.39;50.74
68197;BME280;55019;49.382;11.358;2024-03-02T12:19:26;95557.41;;;17.67;51.56
68197;BME280;55019;49.382;11.358;2024-03-02T12:21:59;95553.78;;;17.57;51.26
68197;BME280;55019;49.382;11.358;2024-03-02T12:24:29;95552.50;;;17.71;51.25
68197;BME280;55019;49.382;11.358;2024-03-02T12:26:55;95550.84;;;18.32;49.88
68197;BME280;55019;49.382;11.358;2024-03-02T12:29:22;95546.69;;;18.64;48.29
68197;BME280;55019;49.382;11.358;2024-03-02T12:31:50;95538.75;;;18.03;50.84
68197;BME280;55019;49.382;11.358;2024-03-02T12:34:17;95546.13;;;17.78;50.56
68197;BME280;55019;49.382;11.358;2024-03-02T12:36:43;95540.06;;;18.45;48.33
68197;BME280;55019;49.382;11.358;2024-03-02T12:39:09;95528.91;;;18.99;47.27
68197;BME280;55019;49.382;11.358;2024-03-02T12:41:37;95529.41;;;17.91;49.28
68197;BME280;55019;49.382;11.358;2024-03-02T12:44:04;95526.91;;;16.88;52.88
68197;BME280;55019;49.382;11.358;2024-03-02T12:46:31;95530.63;;;16.57;53.31
68197;BME280;55019;49.382;11.358;2024-03-02T12:48:57;95521.44;;;17.01;56.08
68197;BME280;55019;49.382;11.358;2024-03-02T12:51:23;95519.06;;;16.65;57.81
68197;BME280;55019;49.382;11.358;2024-03-02T12:53:55;95524.97;;;17.06;55.18
68197;BME280;55019;49.382;11.358;2024-03-02T12:56:22;95523.22;;;15.84;62.72
68197;BME280;55019;49.382;11.358;2024-03-02T12:58:47;95513.50;;;16.20;59.85
68197;BME280;55019;49.382;11.358;2024-03-02T13:01:14;95527.47;;;16.67;62.63
68197;BME280;55019;49.382;11.358;2024-03-02T13:03:40;95521.03;;;17.77;55.87